createdAt,value
2019-01-15T00:02:08.832Z,67.38
2019-01-15T00:04:40.447Z,67.34
2019-01-15T00:07:09.501Z,67.00
2019-01-15T00:09:43.060Z,66.78
2019-01-15T00:12:11.861Z,67.28
2019-01-15T00:15:05.951Z,67.28
2019-01-15T00:17:35.217Z,66.91
2019-01-15T00:20:09.977Z,66.87
2019-01-15T00:22:39.128Z,66.93
2019-01-15T00:25:11.909Z,66.79
2019-01-15T00:27:40.676Z,66.69
2019-01-15T00:30:19.459Z,66.88
2019-01-15T00:32:54.268Z,66.69
2019-01-15T00:35:25.104Z,66.70
2019-01-15T00:38:01.227Z,66.77
2019-01-15T00:40:31.238Z,66.75
2019-01-15T00:43:03.137Z,66.66
2019-01-15T00:45:32.133Z,66.84
2019-01-15T00:48:04.268Z,66.88
2019-01-15T00:50:35.089Z,67.20
2019-01-15T00:53:07.097Z,67.66
2019-01-15T00:55:47.503Z,67.52
2019-01-15T00:58:19.461Z,67.68
2019-01-15T01:00:48.696Z,67.71
2019-01-15T01:03:23.824Z,67.12
2019-01-15T01:06:00.306Z,67.12
2019-01-15T01:08:34.400Z,67.35
2019-01-15T01:11:07.538Z,67.45
2019-01-15T01:13:39.126Z,67.37
2019-01-15T01:16:07.970Z,67.31
2019-01-15T01:18:39.438Z,67.60
2019-01-15T01:21:12.489Z,67.40
2019-01-15T01:23:41.638Z,67.26
2019-01-15T01:26:10.784Z,67.19
2019-01-15T01:28:39.996Z,67.30
2019-01-15T01:31:09.933Z,67.32
2019-01-15T01:33:45.499Z,67.19
2019-01-15T01:36:16.839Z,67.26
2019-01-15T01:38:48.774Z,67.14
2019-01-15T01:41:20.402Z,67.06
2019-01-15T01:43:50.283Z,67.22
2019-01-15T01:46:23.325Z,67.15
2019-01-15T01:49:10.808Z,66.86
2019-01-15T01:52:02.773Z,66.96
2019-01-15T01:54:41.875Z,67.18
2019-01-15T01:57:14.421Z,67.53
2019-01-15T01:59:44.712Z,67.68
2019-01-15T02:02:15.701Z,67.91
2019-01-15T02:04:46.516Z,67.73
2019-01-15T02:07:20.265Z,67.97
2019-01-15T02:09:51.576Z,67.94
2019-01-15T02:12:21.906Z,67.97
2019-01-15T02:14:51.954Z,67.93
2019-01-15T02:17:22.349Z,67.86
2019-01-15T02:19:51.851Z,68.04
2019-01-15T02:22:30.411Z,68.04
2019-01-15T02:25:01.204Z,68.26
2019-01-15T02:27:34.452Z,68.13
2019-01-15T02:30:16.643Z,68.23
2019-01-15T02:32:55.287Z,68.36
2019-01-15T02:35:25.673Z,68.55
2019-01-15T02:37:57.240Z,68.40
2019-01-15T02:40:26.233Z,68.17
2019-01-15T02:42:56.723Z,68.17
2019-01-15T02:45:27.626Z,67.81
2019-01-15T02:48:03.102Z,67.92
2019-01-15T02:50:45.119Z,67.85
2019-01-15T02:53:05.934Z,68.04
2019-01-15T02:55:34.936Z,67.96
2019-01-15T02:58:06.082Z,67.90
2019-01-15T03:00:36.597Z,67.81
2019-01-15T03:03:05.360Z,67.88
2019-01-15T03:05:37.680Z,67.91
2019-01-15T03:08:08.630Z,67.82
2019-01-15T03:10:39.722Z,67.88
2019-01-15T03:13:10.278Z,67.86
2019-01-15T03:15:41.338Z,67.97
2019-01-15T03:18:14.332Z,67.92
2019-01-15T03:20:44.806Z,67.85
2019-01-15T03:23:14.000Z,67.83
2019-01-15T03:25:42.749Z,67.87
2019-01-15T03:28:12.002Z,67.96
2019-01-15T03:30:40.988Z,67.97
2019-01-15T03:33:09.687Z,68.26
2019-01-15T03:35:38.967Z,68.30
2019-01-15T03:38:09.735Z,68.25
2019-01-15T03:40:38.701Z,68.10
2019-01-15T03:43:07.407Z,68.29
2019-01-15T03:45:37.043Z,68.28
2019-01-15T03:48:05.602Z,68.39
2019-01-15T03:50:40.206Z,68.40
2019-01-15T03:53:09.165Z,68.26
2019-01-15T03:55:37.793Z,68.13
2019-01-15T03:58:06.373Z,67.97
2019-01-15T04:00:35.424Z,67.81
2019-01-15T04:03:03.910Z,67.58
2019-01-15T04:05:33.176Z,67.63
2019-01-15T04:08:02.666Z,67.33
2019-01-15T04:10:44.185Z,67.74
2019-01-15T04:13:13.045Z,67.87
2019-01-15T04:15:41.628Z,67.66
2019-01-15T04:18:10.301Z,67.43
2019-01-15T04:20:40.062Z,67.50
2019-01-15T04:23:08.928Z,67.35
2019-01-15T04:25:37.560Z,66.95
2019-01-15T04:28:06.373Z,66.79
2019-01-15T04:30:37.206Z,67.27
2019-01-15T04:33:05.689Z,67.46
2019-01-15T04:35:34.796Z,67.60
2019-01-15T04:38:03.331Z,67.74
2019-01-15T04:40:32.094Z,67.94
2019-01-15T04:43:01.150Z,68.03
2019-01-15T04:45:30.002Z,68.49
2019-01-15T04:47:58.978Z,68.42
2019-01-15T04:50:28.329Z,68.45
2019-01-15T04:53:03.909Z,68.51
2019-01-15T04:55:32.587Z,68.29
2019-01-15T04:58:01.276Z,68.18
2019-01-15T05:00:30.118Z,68.48
2019-01-15T05:03:02.469Z,68.63
2019-01-15T05:05:31.430Z,68.66
2019-01-15T05:08:01.568Z,68.79
2019-01-15T05:10:30.585Z,68.73
2019-01-15T05:12:59.360Z,68.75
2019-01-15T05:15:30.246Z,68.83
2019-01-15T05:18:01.286Z,68.83
2019-01-15T05:20:33.241Z,68.72
2019-01-15T05:23:12.611Z,68.73
2019-01-15T05:25:47.908Z,69.04
2019-01-15T05:28:17.682Z,69.10
2019-01-15T05:30:47.192Z,69.14
2019-01-15T05:35:43.708Z,68.84
2019-01-15T05:38:45.078Z,68.84
2019-01-15T05:41:37.278Z,69.70
2019-01-15T05:59:20.691Z,68.79
2019-01-15T06:05:15.701Z,68.18
2019-01-15T06:07:21.369Z,68.15
2019-01-15T06:16:30.722Z,68.08
2019-01-15T06:19:09.976Z,68.09
2019-01-15T06:21:57.702Z,67.96
2019-01-15T06:25:09.393Z,67.70
2019-01-15T06:27:37.056Z,67.33
2019-01-15T06:33:45.544Z,66.91
2019-01-15T06:36:12.103Z,66.89
2019-01-15T11:15:24.908Z,61.19
2019-01-15T11:20:57.011Z,60.52
2019-01-15T11:23:28.163Z,60.23
2019-01-15T11:25:58.940Z,60.28
2019-01-15T11:32:27.201Z,59.15
2019-01-15T11:35:51.446Z,58.83
2019-01-15T11:50:07.220Z,58.85
2019-01-15T11:58:34.035Z,58.55
2019-01-15T12:04:31.545Z,57.71
2019-01-15T12:07:39.058Z,57.66
2019-01-15T12:13:57.407Z,56.90
2019-01-15T12:16:45.080Z,57.21
2019-01-15T12:23:19.890Z,56.69
2019-01-15T12:26:28.232Z,56.36
2019-01-15T12:29:24.701Z,56.30
2019-01-15T12:32:32.326Z,56.33
2019-01-15T12:35:12.080Z,55.98
2019-01-15T12:38:19.196Z,56.05
2019-01-15T12:41:08.073Z,56.25
2019-01-15T12:54:05.512Z,56.39
2019-01-15T13:06:00.844Z,56.17
2019-01-15T13:08:53.854Z,55.50
2019-01-15T13:11:58.716Z,55.77
2019-01-15T13:14:52.870Z,55.51
2019-01-15T13:17:49.232Z,55.60
2019-01-15T13:24:12.910Z,56.07
2019-01-15T13:27:19.701Z,56.03
2019-01-15T13:30:31.631Z,55.60
2019-01-15T13:39:51.324Z,56.87
2019-01-15T13:43:46.069Z,57.34
2019-01-15T13:49:05.506Z,57.16
2019-01-15T13:52:27.700Z,57.60
2019-01-15T13:55:25.436Z,57.60
2019-01-15T13:58:32.739Z,57.20
2019-01-15T14:01:26.109Z,57.38
2019-01-15T14:13:54.685Z,58.17
2019-01-15T14:20:19.526Z,58.88
2019-01-15T14:30:45.117Z,60.63
2019-01-15T14:36:39.284Z,60.64
2019-01-15T14:46:17.157Z,60.52
2019-01-15T14:52:25.573Z,61.00
2019-01-15T14:55:38.496Z,60.71
2019-01-15T14:58:32.714Z,60.76
2019-01-15T15:05:31.793Z,60.34
2019-01-15T15:08:20.242Z,60.15
2019-01-15T15:26:32.916Z,61.47
2019-01-15T15:29:35.135Z,61.58
2019-01-15T15:40:15.789Z,61.67
2019-01-15T15:43:26.800Z,61.87
2019-01-15T15:46:20.730Z,62.01
2019-01-15T15:56:54.714Z,62.31
2019-01-15T16:02:35.596Z,62.19
2019-01-15T16:08:56.961Z,62.28
2019-01-15T16:29:37.285Z,62.78
2019-01-15T16:32:45.546Z,62.70
2019-01-15T16:39:07.492Z,63.01
2019-01-15T16:42:15.086Z,63.01
2019-01-15T16:48:35.733Z,63.33
2019-01-15T16:51:49.676Z,63.34
2019-01-15T16:54:42.475Z,63.38
2019-01-15T17:00:45.843Z,63.29
2019-01-15T17:09:45.002Z,63.13
2019-01-15T17:12:58.546Z,63.04
2019-01-15T17:15:38.148Z,63.02
2019-01-15T17:18:48.356Z,63.16
2019-01-15T17:21:50.493Z,63.16
2019-01-15T17:24:49.401Z,62.93
2019-01-15T17:27:42.779Z,63.09
2019-01-15T17:31:45.724Z,63.22
2019-01-15T17:42:43.008Z,63.09
2019-01-15T17:45:05.102Z,63.41
2019-01-15T17:54:02.665Z,62.97
2019-01-15T18:10:14.534Z,62.98
2019-01-15T18:22:48.740Z,62.58
2019-01-15T18:32:27.868Z,62.60
2019-01-15T18:35:29.881Z,62.39
2019-01-15T18:41:18.894Z,62.54
2019-01-15T18:55:39.042Z,61.55
2019-01-15T19:05:10.827Z,61.75
2019-01-15T19:08:20.775Z,61.64
2019-01-15T19:11:16.034Z,61.17
2019-01-15T19:14:17.609Z,61.23
2019-01-15T19:20:47.261Z,61.42
2019-01-15T19:26:34.579Z,61.57
2019-01-15T19:29:16.232Z,61.96
2019-01-15T19:35:09.113Z,62.22
2019-01-15T19:37:48.263Z,62.31
2019-01-15T19:40:49.392Z,62.00
2019-01-15T19:43:38.375Z,61.73
2019-01-15T19:49:42.681Z,62.96
2019-01-15T19:52:54.228Z,62.57
2019-01-15T20:02:12.687Z,63.29
2019-01-15T20:05:19.219Z,63.06
2019-01-15T20:07:57.731Z,63.07
2019-01-15T20:11:05.685Z,62.84
2019-01-15T20:14:12.407Z,62.91
2019-01-15T20:16:53.111Z,63.21
2019-01-15T20:19:59.605Z,63.08
2019-01-15T20:23:21.026Z,63.25
2019-01-15T20:29:17.392Z,63.21
2019-01-15T20:32:14.764Z,63.20
2019-01-15T20:35:04.144Z,62.41
2019-01-15T20:37:55.282Z,62.45
2019-01-15T20:40:48.864Z,62.67
2019-01-15T20:43:43.949Z,62.74
2019-01-15T20:49:15.588Z,63.06
2019-01-15T20:52:22.645Z,63.49
2019-01-15T20:55:10.212Z,63.40
2019-01-15T20:58:55.374Z,63.72
2019-01-15T21:04:12.730Z,63.93
2019-01-15T21:07:11.101Z,63.66
2019-01-15T21:10:00.838Z,63.82
2019-01-15T21:12:59.576Z,64.13
2019-01-15T21:16:37.563Z,64.03
2019-01-15T21:25:55.661Z,63.80
2019-01-15T21:29:43.085Z,63.46
2019-01-15T21:31:57.411Z,63.57
2019-01-15T21:34:59.474Z,63.44
2019-01-15T21:37:55.552Z,63.47
2019-01-15T21:40:52.062Z,63.25
2019-01-15T21:43:42.723Z,63.12
2019-01-15T22:06:19.173Z,63.26
2019-01-15T22:09:26.535Z,63.71
2019-01-15T22:12:34.394Z,63.27
2019-01-15T22:15:41.099Z,63.67
2019-01-15T22:19:43.252Z,63.73
2019-01-15T22:22:01.082Z,63.56
2019-01-15T22:28:33.736Z,63.78
2019-01-15T22:37:37.218Z,63.60
2019-01-15T22:40:46.059Z,63.53
2019-01-15T22:47:20.077Z,64.11
2019-01-15T22:50:51.876Z,63.56
2019-01-15T23:03:39.480Z,63.74
2019-01-15T23:05:44.887Z,63.77
2019-01-15T23:08:32.529Z,63.76
2019-01-15T23:11:20.468Z,64.12
2019-01-15T23:14:13.853Z,64.34
2019-01-15T23:17:38.266Z,64.23
2019-01-15T23:25:41.620Z,64.05
2019-01-15T23:28:29.960Z,64.34
2019-01-15T23:33:59.739Z,64.79
2019-01-15T23:37:07.469Z,64.83
2019-01-15T23:40:15.347Z,64.41
2019-01-15T23:46:15.474Z,64.68
2019-01-15T23:49:15.686Z,64.89
2019-01-15T23:52:19.310Z,65.07
2019-01-15T23:55:11.034Z,64.94
2019-01-15T23:57:59.090Z,64.88
